sensor_id;sensor_type;location;lat;lon;timestamp;P1;durP1;ratioP1;P2;durP2;ratioP2
73321;SDS011;61549;37.044;22.128;2023-04-30T00:01:21;4.38;;;2.10;;
73321;SDS011;61549;37.044;22.128;2023-04-30T00:03:47;3.70;;;2.00;;
73321;SDS011;61549;37.044;22.128;2023-04-30T00:06:13;3.08;;;2.20;;
73321;SDS011;61549;37.044;22.128;2023-04-30T00:08:39;3.78;;;2.30;;
73321;SDS011;61549;37.044;22.128;2023-04-30T00:11:05;5.07;;;2.13;;
73321;SDS011;61549;37.044;22.128;2023-04-30T00:13:31;5.35;;;2.10;;
73321;SDS011;61549;37.044;22.128;2023-04-30T00:15:57;3.42;;;2.13;;
73321;SDS011;61549;37.044;22.128;2023-04-30T00:18:23;3.25;;;2.03;;
73321;SDS011;61549;37.044;22.128;2023-04-30T00:20:55;4.07;;;2.13;;
73321;SDS011;61549;37.044;22.128;2023-04-30T00:23:21;4.85;;;2.35;;
73321;SDS011;61549;37.044;22.128;2023-04-30T00:25:52;4.55;;;2.20;;
73321;SDS011;61549;37.044;22.128;2023-04-30T00:28:18;3.35;;;1.85;;
73321;SDS011;61549;37.044;22.128;2023-04-30T00:33:22;2.90;;;2.00;;
73321;SDS011;61549;37.044;22.128;2023-04-30T00:35:48;3.47;;;2.28;;
73321;SDS011;61549;37.044;22.128;2023-04-30T00:38:15;2.58;;;2.00;;
73321;SDS011;61549;37.044;22.128;2023-04-30T00:40:41;4.05;;;2.03;;
73321;SDS011;61549;37.044;22.128;2023-04-30T00:43:09;4.85;;;2.22;;
73321;SDS011;61549;37.044;22.128;2023-04-30T00:45:35;4.18;;;1.92;;
73321;SDS011;61549;37.044;22.128;2023-04-30T00:50:44;4.63;;;2.33;;
73321;SDS011;61549;37.044;22.128;2023-04-30T00:53:13;4.55;;;2.30;;
73321;SDS011;61549;37.044;22.128;2023-04-30T00:58:18;4.32;;;2.10;;
73321;SDS011;61549;37.044;22.128;2023-04-30T01:00:44;4.25;;;2.10;;
73321;SDS011;61549;37.044;22.128;2023-04-30T01:03:14;4.10;;;2.20;;
73321;SDS011;61549;37.044;22.128;2023-04-30T01:08:43;2.95;;;2.15;;
73321;SDS011;61549;37.044;22.128;2023-04-30T01:13:48;2.70;;;1.88;;
73321;SDS011;61549;37.044;22.128;2023-04-30T01:18:51;4.38;;;2.00;;
73321;SDS011;61549;37.044;22.128;2023-04-30T01:21:29;3.78;;;2.17;;
73321;SDS011;61549;37.044;22.128;2023-04-30T01:29:25;4.03;;;2.20;;
73321;SDS011;61549;37.044;22.128;2023-04-30T01:32:00;3.20;;;2.10;;
73321;SDS011;61549;37.044;22.128;2023-04-30T01:34:30;2.80;;;2.20;;
73321;SDS011;61549;37.044;22.128;2023-04-30T01:37:01;4.10;;;2.17;;
73321;SDS011;61549;37.044;22.128;2023-04-30T01:45:38;3.40;;;2.30;;
73321;SDS011;61549;37.044;22.128;2023-04-30T01:48:32;2.72;;;2.25;;
73321;SDS011;61549;37.044;22.128;2023-04-30T01:51:14;4.07;;;2.30;;
73321;SDS011;61549;37.044;22.128;2023-04-30T01:53:49;4.55;;;2.55;;
73321;SDS011;61549;37.044;22.128;2023-04-30T01:56:20;4.20;;;2.20;;
73321;SDS011;61549;37.044;22.128;2023-04-30T01:59:08;6.03;;;2.78;;
73321;SDS011;61549;37.044;22.128;2023-04-30T02:01:41;4.97;;;2.40;;
73321;SDS011;61549;37.044;22.128;2023-04-30T02:04:13;3.95;;;2.13;;
73321;SDS011;61549;37.044;22.128;2023-04-30T02:06:41;4.15;;;2.05;;
73321;SDS011;61549;37.044;22.128;2023-04-30T02:09:09;2.97;;;2.28;;
73321;SDS011;61549;37.044;22.128;2023-04-30T02:11:35;2.70;;;2.08;;
73321;SDS011;61549;37.044;22.128;2023-04-30T02:14:11;2.60;;;1.90;;
73321;SDS011;61549;37.044;22.128;2023-04-30T02:16:36;5.35;;;1.90;;
73321;SDS011;61549;37.044;22.128;2023-04-30T02:19:02;4.03;;;2.10;;
73321;SDS011;61549;37.044;22.128;2023-04-30T02:21:28;4.32;;;2.00;;
73321;SDS011;61549;37.044;22.128;2023-04-30T02:24:05;3.10;;;2.08;;
73321;SDS011;61549;37.044;22.128;2023-04-30T02:28:56;3.72;;;2.13;;
73321;SDS011;61549;37.044;22.128;2023-04-30T02:31:29;5.03;;;2.20;;
73321;SDS011;61549;37.044;22.128;2023-04-30T02:34:03;2.55;;;2.00;;
73321;SDS011;61549;37.044;22.128;2023-04-30T02:36:29;4.40;;;2.20;;
73321;SDS011;61549;37.044;22.128;2023-04-30T02:39:00;5.45;;;2.30;;
73321;SDS011;61549;37.044;22.128;2023-04-30T02:44:00;3.17;;;1.85;;
73321;SDS011;61549;37.044;22.128;2023-04-30T02:48:57;3.80;;;2.28;;
73321;SDS011;61549;37.044;22.128;2023-04-30T02:51:22;3.95;;;2.13;;
73321;SDS011;61549;37.044;22.128;2023-04-30T02:53:48;3.10;;;2.00;;
73321;SDS011;61549;37.044;22.128;2023-04-30T02:56:15;2.90;;;1.77;;
73321;SDS011;61549;37.044;22.128;2023-04-30T02:58:41;4.55;;;1.90;;
73321;SDS011;61549;37.044;22.128;2023-04-30T03:01:07;3.78;;;1.95;;
73321;SDS011;61549;37.044;22.128;2023-04-30T03:03:33;4.95;;;2.00;;
73321;SDS011;61549;37.044;22.128;2023-04-30T03:06:09;3.70;;;1.88;;
73321;SDS011;61549;37.044;22.128;2023-04-30T03:08:34;3.70;;;2.00;;
73321;SDS011;61549;37.044;22.128;2023-04-30T03:11:00;4.53;;;1.90;;
73321;SDS011;61549;37.044;22.128;2023-04-30T03:13:26;3.70;;;1.98;;
73321;SDS011;61549;37.044;22.128;2023-04-30T03:15:58;2.58;;;1.70;;
73321;SDS011;61549;37.044;22.128;2023-04-30T03:18:25;2.65;;;1.73;;
73321;SDS011;61549;37.044;22.128;2023-04-30T03:20:52;3.65;;;2.25;;
73321;SDS011;61549;37.044;22.128;2023-04-30T03:23:18;4.93;;;2.20;;
73321;SDS011;61549;37.044;22.128;2023-04-30T03:25:44;3.83;;;2.00;;
73321;SDS011;61549;37.044;22.128;2023-04-30T03:28:12;3.42;;;2.30;;
73321;SDS011;61549;37.044;22.128;2023-04-30T03:30:38;4.47;;;2.40;;
73321;SDS011;61549;37.044;22.128;2023-04-30T03:33:04;3.88;;;2.35;;
73321;SDS011;61549;37.044;22.128;2023-04-30T03:35:36;3.53;;;2.40;;
73321;SDS011;61549;37.044;22.128;2023-04-30T03:38:02;2.80;;;2.40;;
73321;SDS011;61549;37.044;22.128;2023-04-30T03:40:29;3.65;;;2.40;;
73321;SDS011;61549;37.044;22.128;2023-04-30T03:42:55;4.97;;;2.53;;
73321;SDS011;61549;37.044;22.128;2023-04-30T03:45:21;4.10;;;2.40;;
73321;SDS011;61549;37.044;22.128;2023-04-30T03:47:47;4.68;;;2.28;;
73321;SDS011;61549;37.044;22.128;2023-04-30T03:50:13;5.05;;;2.40;;
73321;SDS011;61549;37.044;22.128;2023-04-30T03:52:38;5.82;;;2.28;;
73321;SDS011;61549;37.044;22.128;2023-04-30T03:55:04;6.95;;;2.80;;
73321;SDS011;61549;37.044;22.128;2023-04-30T03:57:31;6.63;;;2.88;;
73321;SDS011;61549;37.044;22.128;2023-04-30T03:59:57;6.50;;;2.70;;
73321;SDS011;61549;37.044;22.128;2023-04-30T04:02:23;3.97;;;2.75;;
73321;SDS011;61549;37.044;22.128;2023-04-30T04:04:50;5.25;;;2.63;;
73321;SDS011;61549;37.044;22.128;2023-04-30T04:07:16;3.88;;;2.67;;
73321;SDS011;61549;37.044;22.128;2023-04-30T04:09:42;4.05;;;2.63;;
73321;SDS011;61549;37.044;22.128;2023-04-30T04:12:08;4.53;;;2.70;;
73321;SDS011;61549;37.044;22.128;2023-04-30T04:14:33;4.57;;;2.63;;
73321;SDS011;61549;37.044;22.128;2023-04-30T04:17:00;3.70;;;2.30;;
73321;SDS011;61549;37.044;22.128;2023-04-30T04:19:26;4.55;;;2.60;;
73321;SDS011;61549;37.044;22.128;2023-04-30T04:21:52;4.65;;;2.50;;
73321;SDS011;61549;37.044;22.128;2023-04-30T04:24:18;3.75;;;2.70;;
73321;SDS011;61549;37.044;22.128;2023-04-30T04:26:44;4.63;;;2.50;;
73321;SDS011;61549;37.044;22.128;2023-04-30T04:29:10;3.65;;;2.60;;
73321;SDS011;61549;37.044;22.128;2023-04-30T04:31:36;3.83;;;2.53;;
73321;SDS011;61549;37.044;22.128;2023-04-30T04:34:03;6.97;;;2.70;;
73321;SDS011;61549;37.044;22.128;2023-04-30T04:36:30;3.40;;;2.33;;
73321;SDS011;61549;37.044;22.128;2023-04-30T04:38:58;2.70;;;2.30;;
73321;SDS011;61549;37.044;22.128;2023-04-30T04:41:31;5.28;;;2.90;;
73321;SDS011;61549;37.044;22.128;2023-04-30T04:43:58;3.45;;;2.60;;
73321;SDS011;61549;37.044;22.128;2023-04-30T04:46:27;4.50;;;2.65;;
73321;SDS011;61549;37.044;22.128;2023-04-30T04:48:55;4.47;;;2.78;;
73321;SDS011;61549;37.044;22.128;2023-04-30T04:51:21;6.43;;;3.90;;
73321;SDS011;61549;37.044;22.128;2023-04-30T04:53:47;5.68;;;4.10;;
73321;SDS011;61549;37.044;22.128;2023-04-30T04:56:13;5.43;;;4.25;;
73321;SDS011;61549;37.044;22.128;2023-04-30T04:58:40;8.07;;;5.07;;
73321;SDS011;61549;37.044;22.128;2023-04-30T05:01:06;8.60;;;5.60;;
73321;SDS011;61549;37.044;22.128;2023-04-30T05:03:33;28.58;;;13.20;;
73321;SDS011;61549;37.044;22.128;2023-04-30T05:06:05;68.13;;;30.23;;
73321;SDS011;61549;37.044;22.128;2023-04-30T05:08:30;134.98;;;56.55;;
73321;SDS011;61549;37.044;22.128;2023-04-30T05:10:56;112.13;;;48.28;;
73321;SDS011;61549;37.044;22.128;2023-04-30T05:13:22;101.35;;;44.58;;
73321;SDS011;61549;37.044;22.128;2023-04-30T05:15:49;88.68;;;41.10;;
73321;SDS011;61549;37.044;22.128;2023-04-30T05:18:16;82.32;;;39.05;;
73321;SDS011;61549;37.044;22.128;2023-04-30T05:20:42;78.63;;;37.20;;
73321;SDS011;61549;37.044;22.128;2023-04-30T05:23:08;80.72;;;37.40;;
73321;SDS011;61549;37.044;22.128;2023-04-30T05:25:34;62.38;;;31.13;;
73321;SDS011;61549;37.044;22.128;2023-04-30T05:28:00;70.20;;;36.22;;
73321;SDS011;61549;37.044;22.128;2023-04-30T05:30:27;82.07;;;40.40;;
73321;SDS011;61549;37.044;22.128;2023-04-30T05:32:54;88.68;;;41.92;;
73321;SDS011;61549;37.044;22.128;2023-04-30T05:35:20;90.60;;;42.67;;
73321;SDS011;61549;37.044;22.128;2023-04-30T05:37:46;71.40;;;34.10;;
73321;SDS011;61549;37.044;22.128;2023-04-30T05:40:12;74.65;;;37.00;;
73321;SDS011;61549;37.044;22.128;2023-04-30T05:42:39;68.78;;;34.10;;
73321;SDS011;61549;37.044;22.128;2023-04-30T05:45:07;30.75;;;16.70;;
73321;SDS011;61549;37.044;22.128;2023-04-30T05:47:38;21.27;;;11.23;;
73321;SDS011;61549;37.044;22.128;2023-04-30T05:50:06;27.20;;;13.05;;
73321;SDS011;61549;37.044;22.128;2023-04-30T05:52:33;13.23;;;8.85;;
73321;SDS011;61549;37.044;22.128;2023-04-30T05:54:59;18.73;;;10.30;;
73321;SDS011;61549;37.044;22.128;2023-04-30T05:57:25;13.00;;;7.35;;
73321;SDS011;61549;37.044;22.128;2023-04-30T05:59:51;13.10;;;7.45;;
73321;SDS011;61549;37.044;22.128;2023-04-30T06:02:18;13.40;;;8.02;;
73321;SDS011;61549;37.044;22.128;2023-04-30T06:04:44;14.23;;;7.78;;
73321;SDS011;61549;37.044;22.128;2023-04-30T06:07:10;10.32;;;6.95;;
73321;SDS011;61549;37.044;22.128;2023-04-30T06:09:35;17.30;;;9.32;;
73321;SDS011;61549;37.044;22.128;2023-04-30T06:12:01;48.22;;;19.70;;
73321;SDS011;61549;37.044;22.128;2023-04-30T06:17:10;33.03;;;14.13;;
73321;SDS011;61549;37.044;22.128;2023-04-30T06:19:37;24.77;;;11.00;;
73321;SDS011;61549;37.044;22.128;2023-04-30T06:22:03;11.65;;;7.28;;
73321;SDS011;61549;37.044;22.128;2023-04-30T06:24:29;10.65;;;7.20;;
73321;SDS011;61549;37.044;22.128;2023-04-30T06:26:55;15.23;;;10.57;;
73321;SDS011;61549;37.044;22.128;2023-04-30T06:29:21;18.38;;;12.52;;
73321;SDS011;61549;37.044;22.128;2023-04-30T06:31:48;19.55;;;12.70;;
73321;SDS011;61549;37.044;22.128;2023-04-30T06:34:15;20.42;;;12.88;;
73321;SDS011;61549;37.044;22.128;2023-04-30T06:36:41;16.70;;;12.38;;
73321;SDS011;61549;37.044;22.128;2023-04-30T06:39:07;16.65;;;10.88;;
73321;SDS011;61549;37.044;22.128;2023-04-30T06:41:33;14.23;;;10.43;;
73321;SDS011;61549;37.044;22.128;2023-04-30T06:43:58;12.52;;;9.45;;
73321;SDS011;61549;37.044;22.128;2023-04-30T06:46:24;18.02;;;12.27;;
73321;SDS011;61549;37.044;22.128;2023-04-30T06:48:50;25.65;;;18.52;;
73321;SDS011;61549;37.044;22.128;2023-04-30T06:51:16;25.85;;;19.80;;
73321;SDS011;61549;37.044;22.128;2023-04-30T06:53:42;18.63;;;12.75;;
73321;SDS011;61549;37.044;22.128;2023-04-30T06:56:08;13.32;;;8.70;;
73321;SDS011;61549;37.044;22.128;2023-04-30T06:58:33;12.00;;;7.72;;
73321;SDS011;61549;37.044;22.128;2023-04-30T07:00:59;16.13;;;8.32;;
73321;SDS011;61549;37.044;22.128;2023-04-30T07:03:25;11.20;;;7.55;;
73321;SDS011;61549;37.044;22.128;2023-04-30T07:05:51;12.63;;;7.95;;
73321;SDS011;61549;37.044;22.128;2023-04-30T07:08:18;12.15;;;7.43;;
73321;SDS011;61549;37.044;22.128;2023-04-30T07:10:43;11.40;;;7.85;;
73321;SDS011;61549;37.044;22.128;2023-04-30T07:13:09;13.18;;;8.70;;
73321;SDS011;61549;37.044;22.128;2023-04-30T07:15:35;11.77;;;8.85;;
73321;SDS011;61549;37.044;22.128;2023-04-30T07:18:02;13.70;;;9.40;;
73321;SDS011;61549;37.044;22.128;2023-04-30T07:20:28;14.73;;;10.27;;
73321;SDS011;61549;37.044;22.128;2023-04-30T07:22:54;13.75;;;9.98;;
73321;SDS011;61549;37.044;22.128;2023-04-30T07:25:20;12.10;;;8.10;;
73321;SDS011;61549;37.044;22.128;2023-04-30T07:27:46;12.85;;;8.93;;
73321;SDS011;61549;37.044;22.128;2023-04-30T07:30:12;12.15;;;8.52;;
73321;SDS011;61549;37.044;22.128;2023-04-30T07:32:38;15.00;;;8.95;;
73321;SDS011;61549;37.044;22.128;2023-04-30T07:35:05;14.20;;;9.45;;
73321;SDS011;61549;37.044;22.128;2023-04-30T07:37:31;16.45;;;9.93;;
73321;SDS011;61549;37.044;22.128;2023-04-30T07:39:57;15.50;;;9.73;;
73321;SDS011;61549;37.044;22.128;2023-04-30T07:42:23;43.90;;;25.10;;
73321;SDS011;61549;37.044;22.128;2023-04-30T07:44:49;23.67;;;13.90;;
73321;SDS011;61549;37.044;22.128;2023-04-30T07:47:20;18.00;;;11.50;;
73321;SDS011;61549;37.044;22.128;2023-04-30T07:49:46;25.02;;;17.20;;
73321;SDS011;61549;37.044;22.128;2023-04-30T07:52:12;19.20;;;12.50;;
73321;SDS011;61549;37.044;22.128;2023-04-30T07:54:38;19.58;;;13.65;;
73321;SDS011;61549;37.044;22.128;2023-04-30T07:57:07;22.80;;;13.45;;
73321;SDS011;61549;37.044;22.128;2023-04-30T07:59:33;19.42;;;13.55;;
73321;SDS011;61549;37.044;22.128;2023-04-30T08:01:59;17.05;;;12.98;;
73321;SDS011;61549;37.044;22.128;2023-04-30T08:04:25;22.23;;;14.55;;
73321;SDS011;61549;37.044;22.128;2023-04-30T08:06:51;20.25;;;14.27;;
73321;SDS011;61549;37.044;22.128;2023-04-30T08:09:17;26.15;;;17.20;;
73321;SDS011;61549;37.044;22.128;2023-04-30T08:11:43;29.13;;;19.92;;
73321;SDS011;61549;37.044;22.128;2023-04-30T08:14:09;23.35;;;15.60;;
73321;SDS011;61549;37.044;22.128;2023-04-30T08:16:36;16.95;;;12.82;;
73321;SDS011;61549;37.044;22.128;2023-04-30T08:19:01;21.63;;;14.05;;
73321;SDS011;61549;37.044;22.128;2023-04-30T08:21:28;17.60;;;12.30;;
73321;SDS011;61549;37.044;22.128;2023-04-30T08:23:54;16.02;;;11.00;;
73321;SDS011;61549;37.044;22.128;2023-04-30T08:26:21;22.50;;;14.57;;
73321;SDS011;61549;37.044;22.128;2023-04-30T08:28:47;18.40;;;12.77;;
73321;SDS011;61549;37.044;22.128;2023-04-30T08:31:13;17.95;;;12.20;;
73321;SDS011;61549;37.044;22.128;2023-04-30T08:33:39;19.13;;;13.30;;
73321;SDS011;61549;37.044;22.128;2023-04-30T08:36:05;18.88;;;12.63;;
73321;SDS011;61549;37.044;22.128;2023-04-30T08:38:31;12.68;;;8.93;;
73321;SDS011;61549;37.044;22.128;2023-04-30T08:41:18;15.75;;;10.32;;
73321;SDS011;61549;37.044;22.128;2023-04-30T08:43:44;12.73;;;8.23;;
73321;SDS011;61549;37.044;22.128;2023-04-30T08:46:12;11.70;;;6.93;;
73321;SDS011;61549;37.044;22.128;2023-04-30T08:48:40;9.98;;;7.15;;
73321;SDS011;61549;37.044;22.128;2023-04-30T08:51:07;15.25;;;9.07;;
73321;SDS011;61549;37.044;22.128;2023-04-30T08:53:35;15.95;;;9.50;;
73321;SDS011;61549;37.044;22.128;2023-04-30T08:56:03;14.43;;;9.90;;
73321;SDS011;61549;37.044;22.128;2023-04-30T08:58:30;13.63;;;8.85;;
73321;SDS011;61549;37.044;22.128;2023-04-30T09:01:00;11.82;;;8.70;;
73321;SDS011;61549;37.044;22.128;2023-04-30T09:03:26;12.20;;;8.00;;
73321;SDS011;61549;37.044;22.128;2023-04-30T09:05:53;11.82;;;7.40;;
73321;SDS011;61549;37.044;22.128;2023-04-30T09:08:27;10.73;;;7.15;;
73321;SDS011;61549;37.044;22.128;2023-04-30T09:11:30;10.13;;;7.72;;
73321;SDS011;61549;37.044;22.128;2023-04-30T09:13:58;10.63;;;6.45;;
73321;SDS011;61549;37.044;22.128;2023-04-30T09:16:26;8.80;;;6.85;;
73321;SDS011;61549;37.044;22.128;2023-04-30T09:18:57;7.63;;;6.10;;
73321;SDS011;61549;37.044;22.128;2023-04-30T09:21:30;11.60;;;8.07;;
73321;SDS011;61549;37.044;22.128;2023-04-30T09:23:58;9.02;;;7.07;;
73321;SDS011;61549;37.044;22.128;2023-04-30T09:26:35;11.35;;;6.60;;
73321;SDS011;61549;37.044;22.128;2023-04-30T09:29:02;10.00;;;7.55;;
73321;SDS011;61549;37.044;22.128;2023-04-30T09:31:38;9.65;;;6.85;;
73321;SDS011;61549;37.044;22.128;2023-04-30T09:34:08;10.20;;;7.13;;
73321;SDS011;61549;37.044;22.128;2023-04-30T09:36:34;10.70;;;6.78;;
73321;SDS011;61549;37.044;22.128;2023-04-30T09:39:10;9.57;;;6.95;;
73321;SDS011;61549;37.044;22.128;2023-04-30T09:41:38;9.93;;;6.15;;
73321;SDS011;61549;37.044;22.128;2023-04-30T09:44:04;9.93;;;6.05;;
73321;SDS011;61549;37.044;22.128;2023-04-30T09:46:33;9.00;;;6.13;;
73321;SDS011;61549;37.044;22.128;2023-04-30T09:49:02;7.95;;;5.50;;
73321;SDS011;61549;37.044;22.128;2023-04-30T09:51:29;5.97;;;4.90;;
73321;SDS011;61549;37.044;22.128;2023-04-30T09:53:55;9.00;;;5.85;;
73321;SDS011;61549;37.044;22.128;2023-04-30T09:56:22;9.13;;;5.68;;
73321;SDS011;61549;37.044;22.128;2023-04-30T09:58:53;8.20;;;5.10;;
73321;SDS011;61549;37.044;22.128;2023-04-30T10:01:21;8.27;;;5.95;;
73321;SDS011;61549;37.044;22.128;2023-04-30T10:03:51;9.25;;;6.20;;
73321;SDS011;61549;37.044;22.128;2023-04-30T10:06:17;7.95;;;5.60;;
73321;SDS011;61549;37.044;22.128;2023-04-30T10:09:03;10.85;;;7.10;;
73321;SDS011;61549;37.044;22.128;2023-04-30T10:11:31;8.18;;;5.68;;
73321;SDS011;61549;37.044;22.128;2023-04-30T10:14:07;8.68;;;5.55;;
73321;SDS011;61549;37.044;22.128;2023-04-30T10:19:33;9.73;;;5.22;;
73321;SDS011;61549;37.044;22.128;2023-04-30T10:22:03;5.93;;;4.00;;
73321;SDS011;61549;37.044;22.128;2023-04-30T10:24:31;7.18;;;3.55;;
73321;SDS011;61549;37.044;22.128;2023-04-30T10:26:58;4.43;;;3.30;;
73321;SDS011;61549;37.044;22.128;2023-04-30T10:29:25;6.53;;;4.15;;
73321;SDS011;61549;37.044;22.128;2023-04-30T10:31:50;5.40;;;3.30;;
73321;SDS011;61549;37.044;22.128;2023-04-30T10:37:23;6.32;;;4.13;;
73321;SDS011;61549;37.044;22.128;2023-04-30T10:39:51;6.38;;;3.95;;
73321;SDS011;61549;37.044;22.128;2023-04-30T10:42:21;6.95;;;4.45;;
73321;SDS011;61549;37.044;22.128;2023-04-30T10:44:46;7.28;;;4.05;;
73321;SDS011;61549;37.044;22.128;2023-04-30T10:47:13;8.50;;;4.82;;
73321;SDS011;61549;37.044;22.128;2023-04-30T10:49:48;9.02;;;5.35;;
73321;SDS011;61549;37.044;22.128;2023-04-30T10:52:14;5.43;;;4.03;;
73321;SDS011;61549;37.044;22.128;2023-04-30T10:54:53;6.78;;;4.40;;
73321;SDS011;61549;37.044;22.128;2023-04-30T10:57:19;7.55;;;5.13;;
73321;SDS011;61549;37.044;22.128;2023-04-30T11:02:38;7.25;;;4.88;;
73321;SDS011;61549;37.044;22.128;2023-04-30T11:05:08;6.43;;;4.43;;
73321;SDS011;61549;37.044;22.128;2023-04-30T11:07:46;7.15;;;4.50;;
73321;SDS011;61549;37.044;22.128;2023-04-30T11:10:13;7.13;;;4.38;;
73321;SDS011;61549;37.044;22.128;2023-04-30T11:12:39;5.18;;;3.95;;
73321;SDS011;61549;37.044;22.128;2023-04-30T11:15:12;6.50;;;4.50;;
73321;SDS011;61549;37.044;22.128;2023-04-30T11:17:41;6.28;;;4.28;;
73321;SDS011;61549;37.044;22.128;2023-04-30T11:20:10;5.00;;;3.60;;
73321;SDS011;61549;37.044;22.128;2023-04-30T11:22:38;5.72;;;3.83;;
73321;SDS011;61549;37.044;22.128;2023-04-30T11:27:38;5.40;;;3.55;;
73321;SDS011;61549;37.044;22.128;2023-04-30T11:30:10;5.07;;;3.17;;
73321;SDS011;61549;37.044;22.128;2023-04-30T11:32:39;4.70;;;3.50;;
73321;SDS011;61549;37.044;22.128;2023-04-30T11:35:06;5.07;;;3.50;;
73321;SDS011;61549;37.044;22.128;2023-04-30T11:37:33;6.00;;;3.35;;
73321;SDS011;61549;37.044;22.128;2023-04-30T11:40:05;5.25;;;3.20;;
73321;SDS011;61549;37.044;22.128;2023-04-30T11:42:35;6.80;;;3.50;;
73321;SDS011;61549;37.044;22.128;2023-04-30T11:45:04;5.25;;;3.35;;
73321;SDS011;61549;37.044;22.128;2023-04-30T11:47:47;5.60;;;3.50;;
73321;SDS011;61549;37.044;22.128;2023-04-30T11:50:20;4.80;;;3.03;;
73321;SDS011;61549;37.044;22.128;2023-04-30T11:52:53;3.95;;;2.70;;
73321;SDS011;61549;37.044;22.128;2023-04-30T11:55:21;4.68;;;2.67;;
73321;SDS011;61549;37.044;22.128;2023-04-30T11:57:48;4.18;;;3.08;;
73321;SDS011;61549;37.044;22.128;2023-04-30T12:00:17;3.90;;;2.70;;
73321;SDS011;61549;37.044;22.128;2023-04-30T12:02:46;5.22;;;2.90;;
73321;SDS011;61549;37.044;22.128;2023-04-30T12:05:14;5.05;;;2.70;;
73321;SDS011;61549;37.044;22.128;2023-04-30T12:07:48;4.38;;;2.50;;
73321;SDS011;61549;37.044;22.128;2023-04-30T12:10:22;4.45;;;2.58;;
73321;SDS011;61549;37.044;22.128;2023-04-30T12:12:51;5.00;;;2.63;;
73321;SDS011;61549;37.044;22.128;2023-04-30T12:15:19;3.00;;;2.35;;
73321;SDS011;61549;37.044;22.128;2023-04-30T12:17:54;5.03;;;2.80;;
73321;SDS011;61549;37.044;22.128;2023-04-30T12:20:22;4.45;;;2.60;;
73321;SDS011;61549;37.044;22.128;2023-04-30T12:22:50;4.20;;;2.40;;
73321;SDS011;61549;37.044;22.128;2023-04-30T12:25:21;3.85;;;2.53;;
73321;SDS011;61549;37.044;22.128;2023-04-30T12:27:51;5.55;;;2.60;;
73321;SDS011;61549;37.044;22.128;2023-04-30T12:30:22;6.82;;;2.70;;
73321;SDS011;61549;37.044;22.128;2023-04-30T12:32:51;5.70;;;2.72;;
73321;SDS011;61549;37.044;22.128;2023-04-30T12:35:19;5.07;;;2.95;;
73321;SDS011;61549;37.044;22.128;2023-04-30T12:37:47;5.47;;;2.50;;
73321;SDS011;61549;37.044;22.128;2023-04-30T12:40:19;5.60;;;2.67;;
73321;SDS011;61549;37.044;22.128;2023-04-30T12:42:46;3.95;;;2.50;;
73321;SDS011;61549;37.044;22.128;2023-04-30T12:45:13;4.78;;;2.70;;
73321;SDS011;61549;37.044;22.128;2023-04-30T12:48:08;4.40;;;2.55;;
73321;SDS011;61549;37.044;22.128;2023-04-30T12:50:34;5.07;;;2.85;;
73321;SDS011;61549;37.044;22.128;2023-04-30T12:53:01;6.15;;;2.90;;
73321;SDS011;61549;37.044;22.128;2023-04-30T12:55:27;5.15;;;2.80;;
73321;SDS011;61549;37.044;22.128;2023-04-30T12:58:03;5.22;;;2.63;;
73321;SDS011;61549;37.044;22.128;2023-04-30T13:03:11;6.03;;;3.22;;
73321;SDS011;61549;37.044;22.128;2023-04-30T13:05:37;5.05;;;3.10;;
73321;SDS011;61549;37.044;22.128;2023-04-30T13:08:05;6.20;;;2.90;;
73321;SDS011;61549;37.044;22.128;2023-04-30T13:10:31;3.92;;;2.75;;
73321;SDS011;61549;37.044;22.128;2023-04-30T13:12:57;7.18;;;3.10;;
73321;SDS011;61549;37.044;22.128;2023-04-30T13:15:25;4.20;;;3.13;;
73321;SDS011;61549;37.044;22.128;2023-04-30T13:17:51;5.22;;;3.03;;
73321;SDS011;61549;37.044;22.128;2023-04-30T13:20:17;5.55;;;2.92;;
73321;SDS011;61549;37.044;22.128;2023-04-30T13:22:46;6.35;;;2.80;;
73321;SDS011;61549;37.044;22.128;2023-04-30T13:25:12;8.07;;;3.38;;
73321;SDS011;61549;37.044;22.128;2023-04-30T13:27:38;5.55;;;3.38;;
73321;SDS011;61549;37.044;22.128;2023-04-30T13:30:04;9.43;;;5.70;;
73321;SDS011;61549;37.044;22.128;2023-04-30T13:32:30;9.25;;;5.72;;
73321;SDS011;61549;37.044;22.128;2023-04-30T13:34:56;10.27;;;5.63;;
73321;SDS011;61549;37.044;22.128;2023-04-30T13:37:22;8.45;;;5.50;;
73321;SDS011;61549;37.044;22.128;2023-04-30T13:39:48;8.10;;;4.28;;
73321;SDS011;61549;37.044;22.128;2023-04-30T13:42:14;8.98;;;4.03;;
73321;SDS011;61549;37.044;22.128;2023-04-30T13:44:41;6.13;;;3.60;;
73321;SDS011;61549;37.044;22.128;2023-04-30T13:47:09;5.88;;;3.30;;
73321;SDS011;61549;37.044;22.128;2023-04-30T13:49:35;3.97;;;2.80;;
73321;SDS011;61549;37.044;22.128;2023-04-30T13:52:04;6.18;;;2.80;;
73321;SDS011;61549;37.044;22.128;2023-04-30T13:54:30;5.85;;;2.85;;
73321;SDS011;61549;37.044;22.128;2023-04-30T13:56:57;6.05;;;2.75;;
73321;SDS011;61549;37.044;22.128;2023-04-30T13:59:24;5.53;;;3.03;;
73321;SDS011;61549;37.044;22.128;2023-04-30T14:01:51;5.57;;;3.20;;
73321;SDS011;61549;37.044;22.128;2023-04-30T14:04:17;5.28;;;2.97;;
73321;SDS011;61549;37.044;22.128;2023-04-30T14:06:46;4.32;;;3.05;;
73321;SDS011;61549;37.044;22.128;2023-04-30T14:09:14;5.38;;;2.72;;
73321;SDS011;61549;37.044;22.128;2023-04-30T14:11:40;6.70;;;3.20;;
73321;SDS011;61549;37.044;22.128;2023-04-30T14:14:06;5.35;;;2.88;;
73321;SDS011;61549;37.044;22.128;2023-04-30T14:19:02;6.47;;;3.63;;
73321;SDS011;61549;37.044;22.128;2023-04-30T14:21:29;6.78;;;3.60;;
73321;SDS011;61549;37.044;22.128;2023-04-30T14:23:55;6.97;;;4.05;;
73321;SDS011;61549;37.044;22.128;2023-04-30T14:26:20;6.25;;;4.20;;
73321;SDS011;61549;37.044;22.128;2023-04-30T14:28:46;8.05;;;4.40;;
73321;SDS011;61549;37.044;22.128;2023-04-30T14:31:12;8.18;;;4.63;;
73321;SDS011;61549;37.044;22.128;2023-04-30T14:33:38;6.35;;;4.00;;
73321;SDS011;61549;37.044;22.128;2023-04-30T14:36:04;7.57;;;4.13;;
73321;SDS011;61549;37.044;22.128;2023-04-30T14:38:32;8.18;;;4.78;;
73321;SDS011;61549;37.044;22.128;2023-04-30T14:40:57;7.82;;;4.53;;
73321;SDS011;61549;37.044;22.128;2023-04-30T14:43:23;6.07;;;4.00;;
73321;SDS011;61549;37.044;22.128;2023-04-30T14:45:50;5.88;;;3.50;;
73321;SDS011;61549;37.044;22.128;2023-04-30T14:48:16;5.55;;;3.28;;
73321;SDS011;61549;37.044;22.128;2023-04-30T14:50:42;6.55;;;3.50;;
73321;SDS011;61549;37.044;22.128;2023-04-30T14:53:09;5.50;;;3.10;;
73321;SDS011;61549;37.044;22.128;2023-04-30T14:55:39;4.47;;;3.15;;
73321;SDS011;61549;37.044;22.128;2023-04-30T14:58:05;6.78;;;3.00;;
73321;SDS011;61549;37.044;22.128;2023-04-30T15:00:31;7.35;;;3.20;;
73321;SDS011;61549;37.044;22.128;2023-04-30T15:02:57;6.57;;;3.10;;
73321;SDS011;61549;37.044;22.128;2023-04-30T15:05:24;9.18;;;4.18;;
73321;SDS011;61549;37.044;22.128;2023-04-30T15:07:50;6.22;;;3.60;;
73321;SDS011;61549;37.044;22.128;2023-04-30T15:10:16;5.57;;;3.40;;
73321;SDS011;61549;37.044;22.128;2023-04-30T15:12:42;6.88;;;3.50;;
73321;SDS011;61549;37.044;22.128;2023-04-30T15:15:09;6.40;;;3.80;;
73321;SDS011;61549;37.044;22.128;2023-04-30T15:17:37;9.18;;;4.00;;
73321;SDS011;61549;37.044;22.128;2023-04-30T15:20:03;8.75;;;3.80;;
73321;SDS011;61549;37.044;22.128;2023-04-30T15:22:30;8.93;;;4.90;;
73321;SDS011;61549;37.044;22.128;2023-04-30T15:24:57;11.32;;;5.72;;
73321;SDS011;61549;37.044;22.128;2023-04-30T15:27:28;12.32;;;7.60;;